sensor_id;sensor_type;location;lat;lon;timestamp;noise_LAeq;noise_LA_min;noise_LA_max;noise_LA01;noise_LA95
74470;Laerm;62918;55.706;37.816;2023-03-01T00:00:29;49.30;46.03;52.38;;
74470;Laerm;62918;55.706;37.816;2023-03-01T00:01:07;51.41;46.10;59.82;;
74470;Laerm;62918;55.706;37.816;2023-03-01T00:01:38;53.84;47.04;60.31;;
74470;Laerm;62918;55.706;37.816;2023-03-01T00:02:09;55.95;46.57;63.20;;
74470;Laerm;62918;55.706;37.816;2023-03-01T00:02:39;53.04;46.02;59.55;;
74470;Laerm;62918;55.706;37.816;2023-03-01T00:03:10;57.61;47.94;70.19;;
74470;Laerm;62918;55.706;37.816;2023-03-01T00:03:41;56.74;47.29;62.59;;
74470;Laerm;62918;55.706;37.816;2023-03-01T00:04:11;58.49;47.54;67.77;;
74470;Laerm;62918;55.706;37.816;2023-03-01T00:04:42;55.96;47.97;79.74;;
74470;Laerm;62918;55.706;37.816;2023-03-01T00:05:13;55.95;47.33;62.89;;
74470;Laerm;62918;55.706;37.816;2023-03-01T00:05:47;55.98;46.82;64.53;;
74470;Laerm;62918;55.706;37.816;2023-03-01T00:06:18;51.48;46.62;61.06;;
74470;Laerm;62918;55.706;37.816;2023-03-01T00:06:48;60.68;47.33;67.03;;
74470;Laerm;62918;55.706;37.816;2023-03-01T00:07:19;58.31;48.65;66.36;;
74470;Laerm;62918;55.706;37.816;2023-03-01T00:07:53;50.13;46.49;57.68;;
74470;Laerm;62918;55.706;37.816;2023-03-01T00:08:24;51.93;46.60;59.70;;
74470;Laerm;62918;55.706;37.816;2023-03-01T00:08:55;54.19;50.39;59.13;;
74470;Laerm;62918;55.706;37.816;2023-03-01T00:09:25;54.35;50.59;64.63;;
74470;Laerm;62918;55.706;37.816;2023-03-01T00:09:56;55.08;50.64;63.71;;
74470;Laerm;62918;55.706;37.816;2023-03-01T00:10:26;66.53;53.85;73.58;;
74470;Laerm;62918;55.706;37.816;2023-03-01T00:11:06;51.10;47.24;56.44;;
74470;Laerm;62918;55.706;37.816;2023-03-01T00:11:37;49.86;46.97;52.32;;
74470;Laerm;62918;55.706;37.816;2023-03-01T00:12:08;53.90;47.37;60.57;;
74470;Laerm;62918;55.706;37.816;2023-03-01T00:12:39;53.38;46.84;58.10;;
74470;Laerm;62918;55.706;37.816;2023-03-01T00:13:10;57.76;51.08;64.04;;
74470;Laerm;62918;55.706;37.816;2023-03-01T00:13:41;55.80;47.28;61.94;;
74470;Laerm;62918;55.706;37.816;2023-03-01T00:14:12;52.18;47.22;57.78;;
74470;Laerm;62918;55.706;37.816;2023-03-01T00:14:43;54.09;47.96;59.60;;
74470;Laerm;62918;55.706;37.816;2023-03-01T00:15:13;53.87;47.44;60.88;;
74470;Laerm;62918;55.706;37.816;2023-03-01T00:15:44;49.70;46.25;52.97;;
74470;Laerm;62918;55.706;37.816;2023-03-01T00:16:21;53.64;47.65;65.13;;
74470;Laerm;62918;55.706;37.816;2023-03-01T00:16:52;66.11;55.03;76.97;;
74470;Laerm;62918;55.706;37.816;2023-03-01T00:17:22;53.67;47.82;62.86;;
74470;Laerm;62918;55.706;37.816;2023-03-01T00:17:53;55.20;47.37;61.16;;
74470;Laerm;62918;55.706;37.816;2023-03-01T00:18:23;53.47;47.67;61.70;;
74470;Laerm;62918;55.706;37.816;2023-03-01T00:18:55;52.47;49.32;56.46;;
74470;Laerm;62918;55.706;37.816;2023-03-01T00:19:26;52.41;48.36;64.71;;
74470;Laerm;62918;55.706;37.816;2023-03-01T00:19:56;52.47;47.11;58.77;;
74470;Laerm;62918;55.706;37.816;2023-03-01T00:20:27;49.43;45.82;53.09;;
74470;Laerm;62918;55.706;37.816;2023-03-01T00:20:58;50.93;46.71;59.38;;
74470;Laerm;62918;55.706;37.816;2023-03-01T00:21:28;55.57;48.37;62.54;;
74470;Laerm;62918;55.706;37.816;2023-03-01T00:21:59;54.46;46.77;61.87;;
74470;Laerm;62918;55.706;37.816;2023-03-01T00:22:30;52.51;46.41;59.82;;
74470;Laerm;62918;55.706;37.816;2023-03-01T00:23:00;53.39;47.06;59.49;;
74470;Laerm;62918;55.706;37.816;2023-03-01T00:23:33;49.82;46.84;52.39;;
74470;Laerm;62918;55.706;37.816;2023-03-01T00:24:04;51.43;48.21;54.59;;
74470;Laerm;62918;55.706;37.816;2023-03-01T00:24:34;56.65;48.02;60.35;;
74470;Laerm;62918;55.706;37.816;2023-03-01T00:25:05;64.08;56.44;77.56;;
74470;Laerm;62918;55.706;37.816;2023-03-01T00:25:41;63.19;57.04;72.21;;
74470;Laerm;62918;55.706;37.816;2023-03-01T00:26:13;61.73;56.20;76.06;;
74470;Laerm;62918;55.706;37.816;2023-03-01T00:26:44;62.45;52.53;74.54;;
74470;Laerm;62918;55.706;37.816;2023-03-01T00:27:14;55.88;42.38;66.56;;
74470;Laerm;62918;55.706;37.816;2023-03-01T00:27:46;46.16;41.70;54.78;;
74470;Laerm;62918;55.706;37.816;2023-03-01T00:28:19;45.93;40.56;52.91;;
74470;Laerm;62918;55.706;37.816;2023-03-01T00:28:51;44.60;41.06;51.54;;
74470;Laerm;62918;55.706;37.816;2023-03-01T00:29:25;44.13;40.63;49.69;;
74470;Laerm;62918;55.706;37.816;2023-03-01T00:29:56;50.41;42.41;63.29;;
74470;Laerm;62918;55.706;37.816;2023-03-01T00:30:26;49.34;44.24;53.58;;
74470;Laerm;62918;55.706;37.816;2023-03-01T00:31:03;54.52;45.83;62.86;;
74470;Laerm;62918;55.706;37.816;2023-03-01T00:31:34;54.04;46.98;59.81;;
74470;Laerm;62918;55.706;37.816;2023-03-01T00:32:05;57.61;45.57;66.05;;
74470;Laerm;62918;55.706;37.816;2023-03-01T00:32:35;49.21;41.49;56.35;;
74470;Laerm;62918;55.706;37.816;2023-03-01T00:33:06;53.50;42.85;59.39;;
74470;Laerm;62918;55.706;37.816;2023-03-01T00:33:36;48.34;40.91;54.89;;
74470;Laerm;62918;55.706;37.816;2023-03-01T00:34:07;45.30;40.79;52.28;;
74470;Laerm;62918;55.706;37.816;2023-03-01T00:34:38;51.30;41.19;59.36;;
74470;Laerm;62918;55.706;37.816;2023-03-01T00:35:08;48.46;40.88;56.82;;
74470;Laerm;62918;55.706;37.816;2023-03-01T00:35:39;43.81;39.24;46.87;;
74470;Laerm;62918;55.706;37.816;2023-03-01T00:36:11;48.85;39.85;64.36;;
74470;Laerm;62918;55.706;37.816;2023-03-01T00:36:42;56.17;45.48;66.86;;
74470;Laerm;62918;55.706;37.816;2023-03-01T00:37:13;62.25;45.59;75.87;;
74470;Laerm;62918;55.706;37.816;2023-03-01T00:37:43;61.45;44.89;75.15;;
74470;Laerm;62918;55.706;37.816;2023-03-01T00:38:14;55.83;46.21;63.02;;
74470;Laerm;62918;55.706;37.816;2023-03-01T00:38:45;46.40;42.11;50.90;;
74470;Laerm;62918;55.706;37.816;2023-03-01T00:39:16;54.56;41.54;63.76;;
74470;Laerm;62918;55.706;37.816;2023-03-01T00:39:47;46.31;41.76;55.58;;
74470;Laerm;62918;55.706;37.816;2023-03-01T00:40:17;54.10;43.43;59.87;;
74470;Laerm;62918;55.706;37.816;2023-03-01T00:40:48;44.92;41.54;48.89;;
74470;Laerm;62918;55.706;37.816;2023-03-01T00:41:20;44.93;39.90;48.34;;
74470;Laerm;62918;55.706;37.816;2023-03-01T00:41:52;47.84;40.98;55.70;;
74470;Laerm;62918;55.706;37.816;2023-03-01T00:42:23;52.89;42.43;60.58;;
74470;Laerm;62918;55.706;37.816;2023-03-01T00:42:54;52.96;49.70;56.85;;
74470;Laerm;62918;55.706;37.816;2023-03-01T00:43:24;55.75;50.20;61.29;;
74470;Laerm;62918;55.706;37.816;2023-03-01T00:43:56;62.15;52.29;68.94;;
74470;Laerm;62918;55.706;37.816;2023-03-01T00:44:26;50.53;42.22;56.86;;
74470;Laerm;62918;55.706;37.816;2023-03-01T00:44:58;54.87;44.12;61.42;;
74470;Laerm;62918;55.706;37.816;2023-03-01T00:45:29;57.76;46.71;64.54;;
74470;Laerm;62918;55.706;37.816;2023-03-01T00:46:20;56.16;47.06;63.54;;
74470;Laerm;62918;55.706;37.816;2023-03-01T00:46:51;57.30;45.85;66.73;;
74470;Laerm;62918;55.706;37.816;2023-03-01T00:47:21;53.60;44.29;62.22;;
74470;Laerm;62918;55.706;37.816;2023-03-01T00:47:52;51.06;42.42;65.09;;
74470;Laerm;62918;55.706;37.816;2023-03-01T00:48:23;56.63;45.90;63.58;;
74470;Laerm;62918;55.706;37.816;2023-03-01T00:48:54;58.63;43.60;66.46;;
74470;Laerm;62918;55.706;37.816;2023-03-01T00:49:24;46.33;42.00;51.67;;
74470;Laerm;62918;55.706;37.816;2023-03-01T00:49:57;48.08;41.79;57.06;;
74470;Laerm;62918;55.706;37.816;2023-03-01T00:50:28;49.68;40.73;59.44;;
74470;Laerm;62918;55.706;37.816;2023-03-01T00:51:10;49.88;40.78;63.96;;
74470;Laerm;62918;55.706;37.816;2023-03-01T00:51:41;54.17;42.81;73.76;;
74470;Laerm;62918;55.706;37.816;2023-03-01T00:52:11;60.62;44.59;69.79;;
74470;Laerm;62918;55.706;37.816;2023-03-01T00:52:42;51.63;43.78;61.29;;
74470;Laerm;62918;55.706;37.816;2023-03-01T00:53:12;50.06;43.27;60.24;;
74470;Laerm;62918;55.706;37.816;2023-03-01T00:53:43;48.41;42.06;67.68;;
74470;Laerm;62918;55.706;37.816;2023-03-01T00:54:14;46.67;40.62;63.29;;
74470;Laerm;62918;55.706;37.816;2023-03-01T00:54:45;44.25;40.20;51.48;;
74470;Laerm;62918;55.706;37.816;2023-03-01T00:55:15;62.74;42.86;71.45;;
74470;Laerm;62918;55.706;37.816;2023-03-01T00:55:46;64.09;47.84;70.71;;
74470;Laerm;62918;55.706;37.816;2023-03-01T00:56:16;56.84;46.43;62.82;;
74470;Laerm;62918;55.706;37.816;2023-03-01T00:56:47;46.60;41.47;52.50;;
74470;Laerm;62918;55.706;37.816;2023-03-01T00:57:18;51.62;44.42;60.58;;
74470;Laerm;62918;55.706;37.816;2023-03-01T00:57:48;58.41;50.30;67.22;;
74470;Laerm;62918;55.706;37.816;2023-03-01T00:58:19;58.79;54.00;63.83;;
74470;Laerm;62918;55.706;37.816;2023-03-01T00:58:50;61.47;50.75;68.78;;
74470;Laerm;62918;55.706;37.816;2023-03-01T00:59:21;59.44;42.60;77.02;;
74470;Laerm;62918;55.706;37.816;2023-03-01T00:59:51;45.18;40.02;52.06;;
74470;Laerm;62918;55.706;37.816;2023-03-01T01:00:25;51.79;43.78;58.67;;
74470;Laerm;62918;55.706;37.816;2023-03-01T01:00:58;52.68;42.01;65.67;;
74470;Laerm;62918;55.706;37.816;2023-03-01T01:01:30;60.89;43.41;68.43;;
74470;Laerm;62918;55.706;37.816;2023-03-01T01:02:01;47.89;42.57;53.19;;
74470;Laerm;62918;55.706;37.816;2023-03-01T01:02:32;44.73;40.90;50.89;;
74470;Laerm;62918;55.706;37.816;2023-03-01T01:03:03;45.44;39.62;64.97;;
74470;Laerm;62918;55.706;37.816;2023-03-01T01:03:34;44.16;41.47;47.60;;
74470;Laerm;62918;55.706;37.816;2023-03-01T01:04:09;44.49;40.56;49.24;;
74470;Laerm;62918;55.706;37.816;2023-03-01T01:04:40;47.12;40.00;54.42;;
74470;Laerm;62918;55.706;37.816;2023-03-01T01:05:13;52.64;43.08;61.98;;
74470;Laerm;62918;55.706;37.816;2023-03-01T01:05:43;64.42;47.19;71.71;;
74470;Laerm;62918;55.706;37.816;2023-03-01T01:06:26;57.81;43.78;69.21;;
74470;Laerm;62918;55.706;37.816;2023-03-01T01:06:56;51.94;42.51;58.25;;
74470;Laerm;62918;55.706;37.816;2023-03-01T01:07:27;52.07;42.62;65.31;;
74470;Laerm;62918;55.706;37.816;2023-03-01T01:07:58;54.45;45.38;62.97;;
74470;Laerm;62918;55.706;37.816;2023-03-01T01:08:28;52.93;42.80;62.20;;
74470;Laerm;62918;55.706;37.816;2023-03-01T01:08:59;58.62;45.02;67.18;;
74470;Laerm;62918;55.706;37.816;2023-03-01T01:09:30;47.07;40.97;59.34;;
74470;Laerm;62918;55.706;37.816;2023-03-01T01:10:01;52.24;42.34;62.35;;
74470;Laerm;62918;55.706;37.816;2023-03-01T01:10:33;43.89;40.55;48.97;;
74470;Laerm;62918;55.706;37.816;2023-03-01T01:11:04;52.82;43.44;62.38;;
74470;Laerm;62918;55.706;37.816;2023-03-01T01:11:35;63.48;52.68;73.20;;
74470;Laerm;62918;55.706;37.816;2023-03-01T01:12:09;69.19;61.05;73.95;;
74470;Laerm;62918;55.706;37.816;2023-03-01T01:12:39;57.50;49.66;63.36;;
74470;Laerm;62918;55.706;37.816;2023-03-01T01:13:10;56.03;47.42;63.27;;
74470;Laerm;62918;55.706;37.816;2023-03-01T01:13:41;49.27;43.39;57.92;;
74470;Laerm;62918;55.706;37.816;2023-03-01T01:14:12;45.67;41.67;49.91;;
74470;Laerm;62918;55.706;37.816;2023-03-01T01:14:43;47.69;40.90;54.90;;
74470;Laerm;62918;55.706;37.816;2023-03-01T01:15:13;51.38;44.67;58.92;;
74470;Laerm;62918;55.706;37.816;2023-03-01T01:15:46;55.16;46.44;61.76;;
74470;Laerm;62918;55.706;37.816;2023-03-01T01:16:18;52.69;44.02;60.01;;
74470;Laerm;62918;55.706;37.816;2023-03-01T01:16:49;45.26;41.62;50.02;;
74470;Laerm;62918;55.706;37.816;2023-03-01T01:17:20;47.29;43.99;51.18;;
74470;Laerm;62918;55.706;37.816;2023-03-01T01:17:50;63.00;46.65;70.71;;
74470;Laerm;62918;55.706;37.816;2023-03-01T01:18:21;57.00;46.70;62.34;;
74470;Laerm;62918;55.706;37.816;2023-03-01T01:18:52;54.95;46.02;63.17;;
74470;Laerm;62918;55.706;37.816;2023-03-01T01:19:23;57.42;44.59;68.02;;
74470;Laerm;62918;55.706;37.816;2023-03-01T01:19:54;55.20;46.44;60.86;;
74470;Laerm;62918;55.706;37.816;2023-03-01T01:20:25;51.30;43.13;57.73;;
74470;Laerm;62918;55.706;37.816;2023-03-01T01:20:55;60.07;51.05;66.68;;
74470;Laerm;62918;55.706;37.816;2023-03-01T01:21:26;47.65;43.45;53.21;;
74470;Laerm;62918;55.706;37.816;2023-03-01T01:21:57;51.03;44.17;56.98;;
74470;Laerm;62918;55.706;37.816;2023-03-01T01:22:28;47.55;41.99;59.95;;
74470;Laerm;62918;55.706;37.816;2023-03-01T01:22:58;46.19;42.77;50.14;;
74470;Laerm;62918;55.706;37.816;2023-03-01T01:23:29;50.54;45.82;55.28;;
74470;Laerm;62918;55.706;37.816;2023-03-01T01:23:59;52.79;46.65;59.19;;
74470;Laerm;62918;55.706;37.816;2023-03-01T01:24:30;51.43;45.76;59.45;;
74470;Laerm;62918;55.706;37.816;2023-03-01T01:25:01;51.82;43.64;59.79;;
74470;Laerm;62918;55.706;37.816;2023-03-01T01:25:34;44.92;41.50;53.41;;
74470;Laerm;62918;55.706;37.816;2023-03-01T01:26:17;50.32;41.80;57.73;;
74470;Laerm;62918;55.706;37.816;2023-03-01T01:26:48;54.81;45.46;66.58;;
74470;Laerm;62918;55.706;37.816;2023-03-01T01:27:19;47.38;40.93;55.41;;
74470;Laerm;62918;55.706;37.816;2023-03-01T01:27:51;43.90;40.74;51.19;;
74470;Laerm;62918;55.706;37.816;2023-03-01T01:28:21;43.87;41.15;46.36;;
74470;Laerm;62918;55.706;37.816;2023-03-01T01:28:53;46.42;41.86;56.00;;
74470;Laerm;62918;55.706;37.816;2023-03-01T01:29:23;46.81;41.93;60.01;;
74470;Laerm;62918;55.706;37.816;2023-03-01T01:29:54;48.88;43.55;62.61;;
74470;Laerm;62918;55.706;37.816;2023-03-01T01:30:24;47.95;42.89;52.48;;
74470;Laerm;62918;55.706;37.816;2023-03-01T01:30:56;53.45;46.42;60.41;;
74470;Laerm;62918;55.706;37.816;2023-03-01T01:31:27;65.08;57.47;72.29;;
74470;Laerm;62918;55.706;37.816;2023-03-01T01:31:58;59.82;56.18;64.52;;
74470;Laerm;62918;55.706;37.816;2023-03-01T01:32:29;59.23;56.02;62.59;;
74470;Laerm;62918;55.706;37.816;2023-03-01T01:32:59;59.58;55.09;62.79;;
74470;Laerm;62918;55.706;37.816;2023-03-01T01:33:30;61.54;56.53;68.08;;
74470;Laerm;62918;55.706;37.816;2023-03-01T01:34:03;61.32;55.54;68.05;;
74470;Laerm;62918;55.706;37.816;2023-03-01T01:34:35;66.55;54.04;77.44;;
74470;Laerm;62918;55.706;37.816;2023-03-01T01:35:05;61.88;47.93;70.56;;
74470;Laerm;62918;55.706;37.816;2023-03-01T01:35:36;45.70;41.18;54.30;;
74470;Laerm;62918;55.706;37.816;2023-03-01T01:36:07;50.58;42.53;58.01;;
74470;Laerm;62918;55.706;37.816;2023-03-01T01:36:38;48.47;43.15;55.08;;
74470;Laerm;62918;55.706;37.816;2023-03-01T01:37:09;59.48;46.92;72.51;;
74470;Laerm;62918;55.706;37.816;2023-03-01T01:37:39;56.15;47.10;70.38;;
74470;Laerm;62918;55.706;37.816;2023-03-01T01:38:10;53.54;43.74;70.10;;
74470;Laerm;62918;55.706;37.816;2023-03-01T01:38:40;50.60;42.00;68.24;;
74470;Laerm;62918;55.706;37.816;2023-03-01T01:39:12;48.88;40.75;70.13;;
74470;Laerm;62918;55.706;37.816;2023-03-01T01:39:43;52.06;43.55;72.44;;
74470;Laerm;62918;55.706;37.816;2023-03-01T01:40:13;53.42;41.88;72.17;;
74470;Laerm;62918;55.706;37.816;2023-03-01T01:40:45;55.43;42.10;65.99;;
74470;Laerm;62918;55.706;37.816;2023-03-01T01:41:17;53.66;41.94;73.16;;
74470;Laerm;62918;55.706;37.816;2023-03-01T01:41:48;53.35;45.09;71.35;;
74470;Laerm;62918;55.706;37.816;2023-03-01T01:42:18;51.53;41.71;70.59;;
74470;Laerm;62918;55.706;37.816;2023-03-01T01:42:49;57.28;42.74;64.30;;
74470;Laerm;62918;55.706;37.816;2023-03-01T01:44:47;44.89;41.64;47.77;;
74470;Laerm;62918;55.706;37.816;2023-03-01T01:46:21;47.71;41.17;62.56;;
74470;Laerm;62918;55.706;37.816;2023-03-01T01:47:18;53.35;45.19;74.59;;
74470;Laerm;62918;55.706;37.816;2023-03-01T01:47:51;52.15;44.44;69.37;;
74470;Laerm;62918;55.706;37.816;2023-03-01T01:48:24;54.78;45.44;70.55;;
74470;Laerm;62918;55.706;37.816;2023-03-01T01:49:36;53.72;42.15;64.44;;
74470;Laerm;62918;55.706;37.816;2023-03-01T01:50:09;56.36;46.02;65.30;;
74470;Laerm;62918;55.706;37.816;2023-03-01T01:50:57;48.22;41.51;67.55;;
74470;Laerm;62918;55.706;37.816;2023-03-01T01:51:32;49.75;41.13;65.69;;
74470;Laerm;62918;55.706;37.816;2023-03-01T01:52:22;52.02;42.14;67.93;;
74470;Laerm;62918;55.706;37.816;2023-03-01T01:52:54;55.60;46.03;68.59;;
74470;Laerm;62918;55.706;37.816;2023-03-01T01:53:26;52.54;43.60;72.34;;
74470;Laerm;62918;55.706;37.816;2023-03-01T01:54:00;53.75;44.92;60.06;;
74470;Laerm;62918;55.706;37.816;2023-03-01T01:54:40;62.67;53.19;75.69;;
74470;Laerm;62918;55.706;37.816;2023-03-01T01:55:19;62.15;52.85;73.32;;
74470;Laerm;62918;55.706;37.816;2023-03-01T01:55:55;50.69;42.12;59.56;;
74470;Laerm;62918;55.706;37.816;2023-03-01T01:56:28;50.61;42.69;57.48;;
74470;Laerm;62918;55.706;37.816;2023-03-01T01:57:02;53.76;46.51;57.96;;
74470;Laerm;62918;55.706;37.816;2023-03-01T01:57:39;55.58;47.81;62.84;;
74470;Laerm;62918;55.706;37.816;2023-03-01T01:58:13;57.98;47.81;67.74;;
74470;Laerm;62918;55.706;37.816;2023-03-01T01:58:47;53.51;46.98;60.92;;
74470;Laerm;62918;55.706;37.816;2023-03-01T01:59:18;59.89;47.21;70.08;;
74470;Laerm;62918;55.706;37.816;2023-03-01T01:59:52;56.89;42.83;65.03;;
74470;Laerm;62918;55.706;37.816;2023-03-01T02:00:26;49.37;42.37;59.48;;
74470;Laerm;62918;55.706;37.816;2023-03-01T02:00:57;46.56;43.03;51.15;;
74470;Laerm;62918;55.706;37.816;2023-03-01T02:01:28;45.54;42.47;48.14;;
74470;Laerm;62918;55.706;37.816;2023-03-01T02:02:00;47.43;42.59;53.58;;
74470;Laerm;62918;55.706;37.816;2023-03-01T02:02:33;46.55;42.81;53.52;;
74470;Laerm;62918;55.706;37.816;2023-03-01T02:03:08;54.31;43.50;70.04;;
74470;Laerm;62918;55.706;37.816;2023-03-01T02:03:42;55.05;47.39;62.76;;
74470;Laerm;62918;55.706;37.816;2023-03-01T02:04:14;59.73;45.47;68.34;;
74470;Laerm;62918;55.706;37.816;2023-03-01T02:04:47;60.97;50.52;71.09;;
74470;Laerm;62918;55.706;37.816;2023-03-01T02:05:31;52.54;42.26;61.84;;
74470;Laerm;62918;55.706;37.816;2023-03-01T02:06:38;51.95;43.13;59.04;;
74470;Laerm;62918;55.706;37.816;2023-03-01T02:07:19;48.95;42.65;56.23;;
74470;Laerm;62918;55.706;37.816;2023-03-01T02:07:51;59.65;51.81;67.75;;
74470;Laerm;62918;55.706;37.816;2023-03-01T02:08:26;61.73;49.87;73.00;;
74470;Laerm;62918;55.706;37.816;2023-03-01T02:09:04;57.10;51.64;64.86;;
74470;Laerm;62918;55.706;37.816;2023-03-01T02:09:37;54.91;46.09;63.07;;
74470;Laerm;62918;55.706;37.816;2023-03-01T02:10:08;50.65;45.69;58.12;;
74470;Laerm;62918;55.706;37.816;2023-03-01T02:10:40;49.85;42.91;57.66;;
74470;Laerm;62918;55.706;37.816;2023-03-01T02:11:12;52.83;44.20;60.96;;
74470;Laerm;62918;55.706;37.816;2023-03-01T02:11:44;56.44;44.61;61.96;;
74470;Laerm;62918;55.706;37.816;2023-03-01T02:12:21;53.86;44.85;62.05;;
74470;Laerm;62918;55.706;37.816;2023-03-01T02:12:53;58.60;51.92;66.26;;
74470;Laerm;62918;55.706;37.816;2023-03-01T02:13:24;57.84;50.90;65.23;;
74470;Laerm;62918;55.706;37.816;2023-03-01T02:13:55;55.18;45.04;63.75;;
74470;Laerm;62918;55.706;37.816;2023-03-01T02:14:26;45.95;42.91;54.15;;
74470;Laerm;62918;55.706;37.816;2023-03-01T02:14:56;53.88;43.66;59.65;;
74470;Laerm;62918;55.706;37.816;2023-03-01T02:15:32;57.13;47.71;61.93;;
74470;Laerm;62918;55.706;37.816;2023-03-01T02:16:05;54.59;47.12;59.41;;
74470;Laerm;62918;55.706;37.816;2023-03-01T02:16:38;58.11;44.83;66.65;;
74470;Laerm;62918;55.706;37.816;2023-03-01T02:17:10;55.98;43.24;65.72;;
74470;Laerm;62918;55.706;37.816;2023-03-01T02:17:41;55.15;51.63;66.53;;
74470;Laerm;62918;55.706;37.816;2023-03-01T02:18:15;59.75;52.16;73.69;;
74470;Laerm;62918;55.706;37.816;2023-03-01T02:18:47;64.84;51.32;73.87;;
74470;Laerm;62918;55.706;37.816;2023-03-01T02:19:35;56.65;52.08;72.00;;
74470;Laerm;62918;55.706;37.816;2023-03-01T02:22:27;60.10;51.74;70.65;;
74470;Laerm;62918;55.706;37.816;2023-03-01T02:22:58;51.90;43.04;62.63;;
74470;Laerm;62918;55.706;37.816;2023-03-01T02:23:30;56.77;43.08;70.47;;
74470;Laerm;62918;55.706;37.816;2023-03-01T02:24:20;58.74;50.34;72.22;;
74470;Laerm;62918;55.706;37.816;2023-03-01T02:26:55;52.10;44.14;61.71;;
74470;Laerm;62918;55.706;37.816;2023-03-01T02:27:45;58.59;51.69;65.31;;
74470;Laerm;62918;55.706;37.816;2023-03-01T02:28:24;59.25;49.86;66.92;;
74470;Laerm;62918;55.706;37.816;2023-03-01T02:28:55;61.28;54.44;70.62;;
74470;Laerm;62918;55.706;37.816;2023-03-01T02:29:26;62.21;52.28;71.32;;
74470;Laerm;62918;55.706;37.816;2023-03-01T02:29:58;60.24;50.59;66.85;;
74470;Laerm;62918;55.706;37.816;2023-03-01T02:30:29;53.94;49.19;59.08;;
74470;Laerm;62918;55.706;37.816;2023-03-01T02:31:08;59.16;49.70;67.76;;
74470;Laerm;62918;55.706;37.816;2023-03-01T02:31:58;57.43;43.96;65.20;;
74470;Laerm;62918;55.706;37.816;2023-03-01T02:32:30;57.00;49.18;62.01;;
74470;Laerm;62918;55.706;37.816;2023-03-01T02:33:03;59.80;52.03;64.48;;
74470;Laerm;62918;55.706;37.816;2023-03-01T02:33:36;57.56;49.11;65.56;;
74470;Laerm;62918;55.706;37.816;2023-03-01T02:34:10;54.22;48.76;59.36;;
74470;Laerm;62918;55.706;37.816;2023-03-01T02:34:42;57.62;48.98;67.90;;
74470;Laerm;62918;55.706;37.816;2023-03-01T02:35:14;56.41;50.75;63.27;;
74470;Laerm;62918;55.706;37.816;2023-03-01T02:35:46;62.63;49.61;71.51;;
74470;Laerm;62918;55.706;37.816;2023-03-01T02:36:29;58.44;46.63;68.64;;
74470;Laerm;62918;55.706;37.816;2023-03-01T02:37:03;62.48;53.63;72.08;;
74470;Laerm;62918;55.706;37.816;2023-03-01T02:37:35;61.67;55.22;75.32;;
74470;Laerm;62918;55.706;37.816;2023-03-01T02:38:07;66.14;54.90;72.32;;
74470;Laerm;62918;55.706;37.816;2023-03-01T02:38:40;54.67;48.20;62.89;;
74470;Laerm;62918;55.706;37.816;2023-03-01T02:39:15;57.06;49.10;73.88;;
74470;Laerm;62918;55.706;37.816;2023-03-01T02:39:48;57.25;50.74;66.61;;
74470;Laerm;62918;55.706;37.816;2023-03-01T02:40:21;63.39;54.80;71.68;;
74470;Laerm;62918;55.706;37.816;2023-03-01T02:40:52;63.65;47.44;72.15;;
74470;Laerm;62918;55.706;37.816;2023-03-01T02:41:25;47.71;44.40;54.75;;
74470;Laerm;62918;55.706;37.816;2023-03-01T02:41:57;54.71;45.04;64.57;;
74470;Laerm;62918;55.706;37.816;2023-03-01T02:42:33;60.68;52.65;66.65;;
74470;Laerm;62918;55.706;37.816;2023-03-01T02:43:10;55.14;46.36;65.85;;
74470;Laerm;62918;55.706;37.816;2023-03-01T02:43:42;57.68;49.02;64.48;;
74470;Laerm;62918;55.706;37.816;2023-03-01T02:44:13;59.76;48.23;66.03;;
74470;Laerm;62918;55.706;37.816;2023-03-01T02:44:44;53.60;49.04;60.02;;
74470;Laerm;62918;55.706;37.816;2023-03-01T02:45:15;56.95;46.81;65.73;;
74470;Laerm;62918;55.706;37.816;2023-03-01T02:45:52;57.43;45.99;64.77;;
74470;Laerm;62918;55.706;37.816;2023-03-01T02:46:25;53.01;46.65;60.60;;
74470;Laerm;62918;55.706;37.816;2023-03-01T02:46:56;58.31;51.07;64.53;;
74470;Laerm;62918;55.706;37.816;2023-03-01T02:47:28;55.43;48.97;64.32;;
74470;Laerm;62918;55.706;37.816;2023-03-01T02:47:59;57.62;47.65;64.19;;
74470;Laerm;62918;55.706;37.816;2023-03-01T02:48:43;62.79;53.15;71.01;;
74470;Laerm;62918;55.706;37.816;2023-03-01T02:49:54;61.35;53.21;66.31;;
74470;Laerm;62918;55.706;37.816;2023-03-01T02:51:12;54.70;48.59;65.25;;
74470;Laerm;62918;55.706;37.816;2023-03-01T02:54:29;54.72;48.40;60.97;;
74470;Laerm;62918;55.706;37.816;2023-03-01T02:55:10;57.60;51.93;64.39;;
74470;Laerm;62918;55.706;37.816;2023-03-01T02:55:43;63.04;51.96;85.82;;
74470;Laerm;62918;55.706;37.816;2023-03-01T02:56:13;59.51;49.79;69.36;;
74470;Laerm;62918;55.706;37.816;2023-03-01T02:56:44;57.16;50.42;68.31;;
74470;Laerm;62918;55.706;37.816;2023-03-01T02:57:19;59.97;50.09;67.29;;
74470;Laerm;62918;55.706;37.816;2023-03-01T02:57:52;60.27;53.55;66.92;;
74470;Laerm;62918;55.706;37.816;2023-03-01T02:58:22;60.17;49.81;67.45;;
74470;Laerm;62918;55.706;37.816;2023-03-01T02:58:53;55.85;48.97;61.71;;
74470;Laerm;62918;55.706;37.816;2023-03-01T02:59:28;66.49;48.73;78.61;;
74470;Laerm;62918;55.706;37.816;2023-03-01T03:00:03;64.46;53.87;73.42;;
74470;Laerm;62918;55.706;37.816;2023-03-01T03:00:39;68.41;52.01;86.17;;
74470;Laerm;62918;55.706;37.816;2023-03-01T03:01:20;56.58;48.77;66.99;;
74470;Laerm;62918;55.706;37.816;2023-03-01T03:01:51;57.67;50.73;65.95;;
74470;Laerm;62918;55.706;37.816;2023-03-01T03:02:26;53.10;48.31;58.89;;
74470;Laerm;62918;55.706;37.816;2023-03-01T03:03:06;58.04;51.28;68.25;;
74470;Laerm;62918;55.706;37.816;2023-03-01T03:03:37;60.44;49.39;67.78;;
74470;Laerm;62918;55.706;37.816;2023-03-01T03:04:11;64.74;60.24;78.23;;
74470;Laerm;62918;55.706;37.816;2023-03-01T03:04:41;64.70;54.76;78.06;;
74470;Laerm;62918;55.706;37.816;2023-03-01T03:05:16;57.38;51.02;66.83;;
74470;Laerm;62918;55.706;37.816;2023-03-01T03:05:47;54.92;50.30;59.92;;
74470;Laerm;62918;55.706;37.816;2023-03-01T03:06:18;58.49;53.43;62.45;;
74470;Laerm;62918;55.706;37.816;2023-03-01T03:06:50;60.64;54.28;65.96;;
74470;Laerm;62918;55.706;37.816;2023-03-01T03:07:21;63.30;57.24;70.18;;
74470;Laerm;62918;55.706;37.816;2023-03-01T03:07:52;62.59;57.55;80.51;;
74470;Laerm;62918;55.706;37.816;2023-03-01T03:08:22;57.48;50.30;66.33;;
74470;Laerm;62918;55.706;37.816;2023-03-01T03:08:54;61.48;53.67;68.36;;
74470;Laerm;62918;55.706;37.816;2023-03-01T03:09:24;63.30;56.90;67.94;;
74470;Laerm;62918;55.706;37.816;2023-03-01T03:09:55;60.68;54.15;65.20;;
74470;Laerm;62918;55.706;37.816;2023-03-01T03:10:28;55.07;49.68;61.96;;
74470;Laerm;62918;55.706;37.816;2023-03-01T03:10:59;62.57;54.01;70.24;;
74470;Laerm;62918;55.706;37.816;2023-03-01T03:11:30;64.97;56.89;70.30;;
74470;Laerm;62918;55.706;37.816;2023-03-01T03:12:02;60.17;55.33;65.02;;